Time;durP1;ratioP1;P1;durP2;ratioP2;P2;SDS_P1;SDS_P2;PMS_P1;PMS_P2;Temp;Humidity;BMP_temperature;BMP_pressure;BME280_temperature;BME280_humidity;BME280_pressure;Samples;Min_cycle;Max_cycle;Signal;HPM_P1;HPM_P2
2023/08/27 01:13:10;;;;;;;14.10;6.90;;;;;;;18.67;100.00;100074.75;216295;1289;111295;-88
2023/08/27 01:18:14;;;;;;;12.80;7.10;;;;;;;18.64;100.00;100073.31;216032;1289;138824;-88
2023/08/27 01:23:33;;;;;;;12.00;6.90;;;;;;;18.63;100.00;100070.51;215178;1288;140682;-89
2023/08/27 01:28:43;;;;;;;10.00;6.10;;;;;;;18.59;100.00;100070.03;215634;1290;139205;-86
2023/08/27 01:33:50;;;;;;;10.50;6.30;;;;;;;18.54;100.00;100054.33;215019;1289;139897;-87
2023/08/27 01:38:50;;;;;;;10.80;5.90;;;;;;;18.53;100.00;100052.84;215777;1289;139770;-88
2023/08/27 01:43:51;;;;;;;10.20;6.40;;;;;;;18.53;100.00;100061.27;215083;1289;140651;-89
2023/08/27 01:48:53;;;;;;;11.40;6.60;;;;;;;18.51;100.00;100071.38;215860;1288;97936;-88
2023/08/27 01:53:54;;;;;;;8.90;5.30;;;;;;;18.50;100.00;100080.08;215055;1289;139886;-89
2023/08/27 01:58:58;;;;;;;9.40;6.00;;;;;;;18.49;100.00;100077.64;216270;1287;138939;-88
2023/08/27 02:03:59;;;;;;;9.40;5.60;;;;;;;18.43;100.00;100073.16;215266;1291;140210;-88
2023/08/27 02:09:00;;;;;;;12.00;5.40;;;;;;;18.33;100.00;100059.91;215834;1290;140724;-89
2023/08/27 02:14:00;;;;;;;13.40;5.70;;;;;;;18.31;100.00;100077.21;215503;1287;139684;-88
2023/08/27 02:19:01;;;;;;;9.50;5.40;;;;;;;18.29;100.00;100065.01;215398;1288;140709;-89
2023/08/27 02:24:03;;;;;;;9.50;4.60;;;;;;;18.27;100.00;100068.41;215988;1289;139203;-88
2023/08/27 02:29:04;;;;;;;12.60;5.50;;;;;;;18.27;100.00;100076.92;215283;1291;141952;-89
2023/08/27 02:34:05;;;;;;;9.60;5.50;;;;;;;18.26;100.00;100061.19;216109;1288;139057;-88
2023/08/27 02:39:05;;;;;;;8.60;5.60;;;;;;;18.24;100.00;100050.57;215022;1288;141107;-88
2023/08/27 02:44:06;;;;;;;11.20;5.30;;;;;;;18.24;100.00;100052.64;215653;1288;138850;-88
2023/08/27 02:49:06;;;;;;;9.90;5.40;;;;;;;18.24;100.00;100057.81;215098;1288;141063;-89
2023/08/27 02:54:09;;;;;;;11.00;5.40;;;;;;;18.23;100.00;100059.77;216229;1291;139334;-88
2023/08/27 02:59:10;;;;;;;10.60;6.30;;;;;;;18.20;100.00;100054.34;215105;1290;141497;-88
2023/08/27 03:04:10;;;;;;;8.80;5.40;;;;;;;18.19;100.00;100053.57;215844;1288;138984;-89
2023/08/27 03:09:11;;;;;;;11.10;5.70;;;;;;;18.19;100.00;100065.49;215284;1291;141165;-89
2023/08/27 03:14:11;;;;;;;9.80;5.10;;;;;;;18.17;100.00;100064.59;215455;1289;139209;-89
2023/08/27 03:19:12;;;;;;;9.80;6.10;;;;;;;18.17;100.00;100063.09;215208;1289;140912;-89
2023/08/27 03:24:12;;;;;;;10.70;6.10;;;;;;;18.18;100.00;100079.63;215725;1289;138595;-89
2023/08/27 03:29:13;;;;;;;10.40;6.30;;;;;;;18.19;100.00;100089.77;215140;1290;140577;-89
2023/08/27 03:34:14;;;;;;;9.20;5.30;;;;;;;18.17;100.00;100090.95;215415;1289;139507;-89
2023/08/27 03:39:15;;;;;;;8.40;4.90;;;;;;;18.16;100.00;100093.66;215055;1287;139872;-89
2023/08/27 03:44:16;;;;;;;11.10;4.70;;;;;;;18.16;100.00;100099.63;215599;1291;138897;-88
2023/08/27 03:49:17;;;;;;;10.70;5.20;;;;;;;18.12;100.00;100089.65;215390;1288;140585;-89
2023/08/27 03:54:17;;;;;;;8.40;4.80;;;;;;;18.11;100.00;100082.73;216193;1286;97897;-89
2023/08/27 03:59:18;;;;;;;8.60;4.80;;;;;;;18.09;100.00;100073.23;215181;1291;140767;-88
2023/08/27 04:04:18;;;;;;;9.80;5.00;;;;;;;18.05;100.00;100056.78;215605;1291;139026;-89
2023/08/27 04:09:20;;;;;;;10.90;4.80;;;;;;;18.02;100.00;100052.56;215076;1290;140796;-88
2023/08/27 04:14:21;;;;;;;9.70;5.20;;;;;;;18.03;100.00;100046.02;215621;1292;139413;-88
2023/08/27 04:19:22;;;;;;;8.50;4.60;;;;;;;18.00;100.00;100035.03;215100;1289;140816;-89
2023/08/27 04:24:22;;;;;;;10.20;4.80;;;;;;;17.99;100.00;100041.98;215596;1291;97860;-88
2023/08/27 04:29:23;;;;;;;7.30;4.40;;;;;;;18.01;100.00;100046.07;214745;1288;140998;-88
2023/08/27 04:34:23;;;;;;;9.10;5.10;;;;;;;18.01;100.00;100041.14;215635;1288;139426;-88
2023/08/27 04:39:24;;;;;;;8.40;4.90;;;;;;;18.02;100.00;100030.86;215021;1288;140735;-88
2023/08/27 04:44:26;;;;;;;9.90;4.90;;;;;;;18.03;100.00;100032.50;215664;1290;138854;-89
2023/08/27 04:49:26;;;;;;;10.70;5.00;;;;;;;18.05;100.00;100046.29;215262;1286;141856;-89
2023/08/27 04:54:27;;;;;;;7.70;4.40;;;;;;;18.07;100.00;100056.17;215994;1286;98014;-88
2023/08/27 04:59:28;;;;;;;8.00;4.30;;;;;;;18.11;100.00;100047.48;215080;1290;140679;-89
2023/08/27 05:04:28;;;;;;;8.40;4.60;;;;;;;18.17;100.00;100054.16;215627;1292;139135;-88
2023/08/27 05:09:29;;;;;;;9.70;4.70;;;;;;;18.22;100.00;100051.02;215114;1286;140201;-87
2023/08/27 05:14:29;;;;;;;10.00;4.10;;;;;;;18.27;100.00;100042.94;215434;1290;139188;-87
2023/08/27 05:19:30;;;;;;;6.80;3.40;;;;;;;18.28;100.00;100034.48;215047;1290;140949;-86
2023/08/27 05:24:32;;;;;;;9.00;4.00;;;;;;;18.32;100.00;100035.18;215720;1287;97809;-86
2023/08/27 05:29:33;;;;;;;9.20;4.40;;;;;;;18.39;100.00;100033.02;215307;1288;141626;-86
2023/08/27 05:34:34;;;;;;;8.50;4.10;;;;;;;18.46;100.00;100036.48;215532;1287;139283;-86
2023/08/27 05:39:34;;;;;;;8.10;3.60;;;;;;;18.53;100.00;100040.17;215164;1291;140257;-87
2023/08/27 05:44:35;;;;;;;9.20;4.40;;;;;;;18.64;100.00;100054.29;215636;1289;139216;-87
2023/08/27 05:49:35;;;;;;;8.20;3.30;;;;;;;18.78;100.00;100058.44;215062;1287;141067;-87
2023/08/27 05:54:36;;;;;;;5.40;3.30;;;;;;;18.90;100.00;100065.67;215978;1289;97910;-87
2023/08/27 05:59:36;;;;;;;7.90;3.80;;;;;;;19.03;100.00;100066.33;215166;1286;141177;-87
2023/08/27 06:04:36;;;;;;;9.30;3.80;;;;;;;19.17;100.00;100064.23;215597;1286;138862;-86
2023/08/27 06:09:37;;;;;;;6.70;3.50;;;;;;;19.22;100.00;100058.13;215112;1288;140347;-87
2023/08/27 06:14:37;;;;;;;7.30;3.40;;;;;;;19.31;100.00;100051.10;215631;1288;138899;-87
2023/08/27 06:19:38;;;;;;;8.80;3.60;;;;;;;19.46;100.00;100041.27;215306;1289;142422;-87
2023/08/27 06:24:38;;;;;;;6.60;3.40;;;;;;;19.61;100.00;100026.87;216578;1289;97876;-86
2023/08/27 06:29:38;;;;;;;7.80;3.30;;;;;;;19.73;99.04;100013.52;214976;1287;141046;-87
2023/08/27 06:34:39;;;;;;;6.30;3.10;;;;;;;19.86;98.47;100006.98;215490;1287;138534;-87
2023/08/27 06:39:39;;;;;;;7.10;3.40;;;;;;;19.92;97.67;100008.13;215155;1288;141953;-87
2023/08/27 06:44:40;;;;;;;8.90;3.60;;;;;;;19.97;97.66;100008.60;216192;1290;138940;-86
2023/08/27 06:49:40;;;;;;;10.50;3.80;;;;;;;20.07;98.37;100000.98;215142;1290;141245;-86
2023/08/27 06:54:40;;;;;;;7.90;3.70;;;;;;;20.20;98.71;100003.33;215583;1288;98419;-86
2023/08/27 06:59:41;;;;;;;8.00;4.20;;;;;;;20.35;98.65;99993.17;215256;1287;142313;-86
2023/08/27 07:04:41;;;;;;;8.70;3.90;;;;;;;20.44;97.96;99971.45;215601;1288;139100;-85
2023/08/27 07:09:42;;;;;;;9.90;4.90;;;;;;;20.51;95.77;99971.63;215138;1286;140653;-85
2023/08/27 07:14:42;;;;;;;8.60;4.60;;;;;;;20.57;94.96;99963.75;215555;1290;139088;-84
2023/08/27 07:19:43;;;;;;;8.20;3.80;;;;;;;20.72;95.01;99941.04;215078;1288;140422;-85
2023/08/27 07:24:43;;;;;;;7.90;4.30;;;;;;;20.95;95.29;99939.13;215748;1288;98607;-85
2023/08/27 07:29:44;;;;;;;9.10;4.20;;;;;;;21.14;93.34;99938.48;215319;1286;141414;-85
2023/08/27 07:34:44;;;;;;;7.00;3.80;;;;;;;21.27;91.77;99951.58;215684;1288;138691;-85
2023/08/27 07:39:44;;;;;;;8.00;3.90;;;;;;;21.43;91.46;99967.54;215215;1290;141008;-85
2023/08/27 07:44:45;;;;;;;8.20;3.80;;;;;;;21.72;92.76;99962.75;215632;1286;138689;-85
2023/08/27 07:49:45;;;;;;;9.60;4.00;;;;;;;22.12;94.19;99958.17;215273;1287;144342;-85
2023/08/27 07:54:46;;;;;;;7.50;4.10;;;;;;;22.47;93.46;99968.39;215960;1287;98466;-86
2023/08/27 07:59:48;;;;;;;7.80;4.00;;;;;;;22.75;91.87;99971.55;215366;1285;139997;-86
2023/08/27 08:04:49;;;;;;;8.70;4.40;;;;;;;23.02;93.07;99979.13;215610;1290;139310;-85
2023/08/27 08:09:49;;;;;;;9.60;4.50;;;;;;;23.31;91.14;99980.30;215144;1288;140438;-85
2023/08/27 08:14:50;;;;;;;9.30;3.90;;;;;;;23.51;90.50;99985.52;215452;1288;138681;-84
2023/08/27 08:19:51;;;;;;;5.90;4.10;;;;;;;23.72;88.37;100011.92;215142;1290;142011;-84
2023/08/27 08:24:52;;;;;;;7.00;3.90;;;;;;;23.92;89.58;100008.84;215846;1287;97856;-85
2023/08/27 08:29:54;;;;;;;8.60;4.80;;;;;;;24.19;88.60;100007.94;215246;1289;140365;-84
2023/08/27 08:34:55;;;;;;;12.40;4.80;;;;;;;24.46;87.38;100002.45;215695;1288;139339;-84
2023/08/27 08:39:55;;;;;;;13.30;4.10;;;;;;;24.72;87.22;100004.80;215068;1286;141348;-83
2023/08/27 08:45:13;;;;;;;9.00;4.10;;;;;;;25.15;85.96;99989.64;215618;1286;140132;-84
2023/08/27 08:50:14;;;;;;;7.50;4.00;;;;;;;25.58;86.08;99984.08;215189;1289;140435;-85
2023/08/27 08:55:18;;;;;;;7.50;4.20;;;;;;;25.94;83.43;100000.51;215566;1288;97964;-84
2023/08/27 09:00:19;;;;;;;9.80;3.90;;;;;;;26.23;82.59;100013.64;215018;1288;140011;-85
2023/08/27 09:05:22;;;;;;;8.90;3.60;;;;;;;26.45;80.88;100013.18;215661;1287;138701;-84
2023/08/27 09:10:24;;;;;;;10.10;3.70;;;;;;;26.53;78.73;100006.63;215209;1288;139967;-85
2023/08/27 09:15:26;;;;;;;7.30;3.60;;;;;;;26.56;77.58;100003.35;216420;1288;139928;-85
2023/08/27 09:20:26;;;;;;;8.10;3.70;;;;;;;26.49;75.20;100001.45;215135;1286;143099;-86
2023/08/27 09:25:27;;;;;;;7.50;3.80;;;;;;;26.22;73.43;100015.05;215855;1287;138667;-86
2023/08/27 09:30:30;;;;;;;9.40;4.40;;;;;;;25.87;72.60;100013.32;215357;1287;140225;-87
2023/08/27 09:35:39;;;;;;;8.30;3.90;;;;;;;25.60;72.59;100009.63;215872;1288;138242;-86
2023/08/27 09:40:40;;;;;;;8.60;4.40;;;;;;;25.38;72.48;99992.48;215086;1288;138782;-86
2023/08/27 09:45:43;;;;;;;10.00;4.10;;;;;;;25.25;73.43;100005.56;215816;1287;137788;-87
2023/08/27 09:50:43;;;;;;;7.60;3.90;;;;;;;25.24;73.16;100010.56;215195;1286;139825;-86
2023/08/27 09:55:50;;;;;;;7.90;3.80;;;;;;;25.18;73.26;99992.52;215498;1288;138208;-87
2023/08/27 10:00:57;;;;;;;9.00;3.90;;;;;;;25.27;74.65;99978.35;215329;1286;139985;-85
2023/08/27 10:06:01;;;;;;;8.80;4.10;;;;;;;25.43;74.83;99973.50;215436;1286;137876;-86
2023/08/27 10:11:08;;;;;;;6.70;4.10;;;;;;;25.59;74.30;99973.13;215253;1287;139340;-85
2023/08/27 10:16:10;;;;;;;7.90;3.80;;;;;;;25.69;74.81;99949.69;216041;1287;137947;-85
2023/08/27 10:21:11;;;;;;;8.90;4.60;;;;;;;25.80;74.43;99970.30;215390;1288;138468;-83
2023/08/27 10:26:13;;;;;;;6.80;3.60;;;;;;;25.93;74.32;99967.39;215929;1287;137849;-84
2023/08/27 10:31:14;;;;;;;8.40;4.30;;;;;;;26.06;74.19;99961.35;215545;1287;139707;-83
2023/08/27 10:36:23;;;;;;;6.90;3.70;;;;;;;26.09;73.82;99968.67;215679;1287;137516;-85
2023/08/27 10:41:25;;;;;;;6.70;3.80;;;;;;;26.16;73.90;99978.98;215168;1290;140026;-85
2023/08/27 10:46:26;;;;;;;7.10;3.90;;;;;;;26.20;73.74;99982.77;215773;1287;138767;-84
2023/08/27 10:51:31;;;;;;;7.50;3.90;;;;;;;26.22;73.13;99976.64;215336;1286;141102;-84
2023/08/27 10:56:31;;;;;;;8.70;3.70;;;;;;;26.27;73.34;99962.33;215827;1286;335088;-84
2023/08/27 11:01:37;;;;;;;7.60;3.90;;;;;;;26.36;72.23;99942.84;215491;1287;140925;-84
2023/08/27 11:06:40;;;;;;;8.00;4.30;;;;;;;26.42;72.22;99940.23;215766;1287;112407;-84
2023/08/27 11:12:03;;;;;;;6.30;3.60;;;;;;;26.30;71.18;99932.73;215320;1287;139814;-84
2023/08/27 11:17:05;;;;;;;8.50;4.30;;;;;;;26.20;71.90;99924.50;215652;1287;138174;-84
2023/08/27 11:22:25;;;;;;;7.30;4.00;;;;;;;26.26;72.51;99922.56;215299;1287;139382;-84
2023/08/27 11:27:27;;;;;;;10.40;4.60;;;;;;;26.32;72.17;99924.44;215899;1290;137927;-85
2023/08/27 11:32:28;;;;;;;8.40;4.20;;;;;;;26.37;72.37;99919.88;215175;1287;139395;-83
2023/08/27 11:37:32;;;;;;;8.30;4.70;;;;;;;26.35;72.39;99919.24;216203;1288;137847;-84
2023/08/27 11:42:32;;;;;;;9.70;4.60;;;;;;;26.29;72.05;99920.50;215110;1287;140125;-83
2023/08/27 11:47:53;;;;;;;7.00;4.10;;;;;;;26.18;72.61;99916.08;215554;1287;137781;-84
2023/08/27 11:52:55;;;;;;;6.90;4.20;;;;;;;26.15;72.96;99918.44;215388;1288;140445;-85
2023/08/27 11:57:55;;;;;;;7.80;4.00;;;;;;;26.13;73.22;99922.36;215974;1288;138148;-84
2023/08/27 12:02:56;;;;;;;7.90;4.40;;;;;;;26.04;72.78;99908.20;215220;1287;141090;-84
2023/08/27 12:07:57;;;;;;;8.70;4.60;;;;;;;25.94;73.15;99904.95;215942;1288;138599;-84
2023/08/27 12:13:01;;;;;;;12.00;5.00;;;;;;;25.85;73.25;99905.63;215254;1287;140523;-84
2023/08/27 12:18:07;;;;;;;7.00;4.50;;;;;;;25.72;73.83;99887.83;215758;1287;137975;-84
2023/08/27 12:23:14;;;;;;;7.00;4.30;;;;;;;25.65;73.73;99882.20;215111;1287;140258;-84
2023/08/27 12:28:17;;;;;;;8.70;4.00;;;;;;;25.56;74.15;99893.01;215663;1287;138138;-84
2023/08/27 12:33:17;;;;;;;7.00;4.00;;;;;;;25.48;74.40;99899.64;215204;1287;139680;-84
2023/08/27 12:38:18;;;;;;;7.50;4.20;;;;;;;25.42;74.50;99893.67;215778;1287;138425;-84
2023/08/27 12:43:18;;;;;;;7.00;4.40;;;;;;;25.34;75.06;99888.29;215489;1285;139685;-83
2023/08/27 12:48:19;;;;;;;9.00;4.50;;;;;;;25.29;75.28;99891.53;215785;1287;137714;-84
2023/08/27 12:53:19;;;;;;;8.40;4.50;;;;;;;25.19;75.65;99887.96;215269;1286;140252;-84
2023/08/27 12:58:20;;;;;;;9.20;4.70;;;;;;;25.06;75.24;99872.20;215681;1287;138539;-84
2023/08/27 13:03:20;;;;;;;7.50;4.60;;;;;;;25.04;76.51;99870.33;215297;1286;139784;-83
2023/08/27 13:08:20;;;;;;;8.30;5.50;;;;;;;25.01;76.76;99873.82;215836;1287;138957;-85
2023/08/27 13:13:21;;;;;;;6.60;4.40;;;;;;;25.00;77.11;99879.47;215491;1287;140713;-86
2023/08/27 13:18:21;;;;;;;9.90;5.20;;;;;;;24.96;77.36;99878.55;215873;1287;138644;-84
2023/08/27 13:23:23;;;;;;;10.30;5.80;;;;;;;24.88;77.96;99867.57;215110;1287;140526;-85
2023/08/27 13:28:27;;;;;;;10.60;5.10;;;;;;;24.72;78.50;99866.14;215651;1290;138777;-85
2023/08/27 13:33:29;;;;;;;8.10;5.20;;;;;;;24.60;79.55;99857.16;215215;1286;140620;-86
2023/08/27 13:38:52;;;;;;;9.20;5.20;;;;;;;24.58;80.28;99845.30;215916;1288;139809;-85
2023/08/27 13:44:01;;;;;;;10.20;5.60;;;;;;;24.58;80.34;99833.55;214999;1287;139900;-86
2023/08/27 13:49:03;;;;;;;10.80;5.60;;;;;;;24.53;81.28;99827.81;215900;1287;140280;-86
2023/08/27 13:54:09;;;;;;;9.80;5.70;;;;;;;24.45;81.55;99829.77;215968;1287;138787;-85
2023/08/27 13:59:17;;;;;;;8.50;5.50;;;;;;;24.33;82.00;99840.05;215739;1290;139302;-86
2023/08/27 14:04:18;;;;;;;9.10;6.00;;;;;;;24.27;82.78;99831.84;215804;1286;138620;-83
2023/08/27 14:09:20;;;;;;;12.80;7.50;;;;;;;24.16;82.66;99835.63;215274;1286;140389;-85
2023/08/27 14:14:20;;;;;;;9.10;5.80;;;;;;;24.05;82.65;99837.73;215874;1288;138778;-85
2023/08/27 14:19:21;;;;;;;10.60;5.30;;;;;;;23.97;83.07;99838.96;215416;1288;141819;-85
2023/08/27 14:24:21;;;;;;;12.00;5.70;;;;;;;23.86;83.19;99829.05;215441;1287;139264;-85
2023/08/27 14:29:22;;;;;;;9.70;5.80;;;;;;;23.71;83.76;99821.75;215147;1288;140599;-85
2023/08/27 14:34:30;;;;;;;9.80;5.60;;;;;;;23.64;83.99;99821.19;215622;1290;138645;-85
2023/08/27 14:39:32;;;;;;;10.30;6.20;;;;;;;23.51;84.58;99801.10;215023;1288;140288;-85
2023/08/27 14:44:33;;;;;;;9.00;5.60;;;;;;;23.34;85.21;99791.86;215540;1287;138788;-85
2023/08/27 14:49:34;;;;;;;9.70;5.70;;;;;;;23.24;85.85;99793.67;215204;1287;140063;-85
2023/08/27 14:54:37;;;;;;;9.80;5.80;;;;;;;23.13;86.40;99787.20;215768;1286;97925;-84
2023/08/27 14:59:42;;;;;;;11.60;6.30;;;;;;;23.03;86.99;99772.54;215252;1287;141398;-84
2023/08/27 15:04:43;;;;;;;13.50;7.20;;;;;;;22.95;87.60;99772.61;215899;1287;139668;-84
2023/08/27 15:09:45;;;;;;;11.40;7.20;;;;;;;22.94;88.54;99772.21;215389;1287;140119;-84
2023/08/27 15:14:46;;;;;;;13.00;7.00;;;;;;;22.90;88.90;99781.72;215686;1287;138696;-83
2023/08/27 15:19:47;;;;;;;10.10;6.30;;;;;;;22.87;89.02;99778.58;215050;1287;140812;-84
2023/08/27 15:24:59;;;;;;;10.30;6.30;;;;;;;22.82;89.65;99782.45;215713;1287;97930;-84
2023/08/27 15:30:00;;;;;;;10.10;6.00;;;;;;;22.73;89.45;99773.25;215897;1287;142692;-84
2023/08/27 15:35:01;;;;;;;12.30;6.60;;;;;;;22.66;89.49;99773.61;215470;1288;139052;-84
2023/08/27 15:40:03;;;;;;;10.10;6.00;;;;;;;22.57;90.20;99775.59;215323;1288;139770;-85
2023/08/27 15:45:05;;;;;;;10.80;7.30;;;;;;;22.49;91.24;99779.57;215887;1290;138669;-86
2023/08/27 15:50:05;;;;;;;9.50;6.00;;;;;;;22.34;92.52;99784.38;215110;1287;140500;-87
2023/08/27 15:55:08;;;;;;;11.40;7.10;;;;;;;22.21;93.75;99784.94;215594;1286;98027;-87
2023/08/27 16:00:09;;;;;;;12.30;7.90;;;;;;;22.02;95.03;99766.77;215325;1290;141848;-89
2023/08/27 16:05:13;;;;;;;15.80;7.90;;;;;;;21.95;95.70;99763.17;215629;1287;138938;-90
2023/08/27 16:10:14;;;;;;;11.50;7.70;;;;;;;21.87;97.46;99771.47;215112;1288;139952;-91
2023/08/27 16:15:25;;;;;;;13.80;7.70;;;;;;;21.75;97.73;99768.40;215595;1288;138997;-93
2023/08/27 16:20:27;;;;;;;13.00;8.90;;;;;;;21.67;98.44;99771.57;215370;1289;140357;-93
2023/08/27 16:25:32;;;;;;;12.40;8.00;;;;;;;21.60;99.29;99772.08;215882;1288;97933;-94
2023/08/27 16:30:33;;;;;;;14.30;9.30;;;;;;;21.52;99.70;99764.21;215070;1288;143217;-92
2023/08/27 16:35:34;;;;;;;14.00;8.20;;;;;;;21.45;99.86;99776.83;215814;1288;139035;-92
2023/08/27 16:40:38;;;;;;;15.80;10.10;;;;;;;21.38;99.94;99783.20;215247;1291;142201;-91
2023/08/27 16:45:39;;;;;;;13.90;8.80;;;;;;;21.28;100.00;99781.55;216014;1288;138824;-91
2023/08/27 16:50:40;;;;;;;13.90;8.90;;;;;;;21.18;100.00;99779.15;215274;1289;140485;-90
2023/08/27 16:55:40;;;;;;;14.80;9.10;;;;;;;21.10;100.00;99770.05;216040;1289;138998;-88
2023/08/27 17:00:42;;;;;;;14.20;10.10;;;;;;;21.02;100.00;99767.42;215462;1288;140732;-90
2023/08/27 17:05:44;;;;;;;15.80;10.30;;;;;;;20.91;100.00;99756.83;215707;1288;139576;-90
2023/08/27 17:10:49;;;;;;;14.80;9.90;;;;;;;20.85;100.00;99765.08;215219;1289;141966;-90
2023/08/27 17:15:52;;;;;;;20.50;11.50;;;;;;;20.80;100.00;99772.70;217041;1288;139109;-88
2023/08/27 17:20:53;;;;;;;13.80;9.60;;;;;;;20.74;100.00;99772.38;215279;1290;142244;-91
2023/08/27 17:25:53;;;;;;;13.90;8.90;;;;;;;20.69;100.00;99768.27;215652;1290;138871;-92
2023/08/27 17:31:02;;;;;;;13.50;9.30;;;;;;;20.64;100.00;99768.70;215437;1288;141670;-92
2023/08/27 17:36:06;;;;;;;13.50;8.10;;;;;;;20.57;100.00;99756.94;216203;1289;138731;-92
2023/08/27 17:41:06;;;;;;;15.30;9.80;;;;;;;20.49;100.00;99757.90;215880;1288;140566;-93
2023/08/27 17:51:18;;;;;;;11.90;7.80;;;;;;;20.23;100.00;99759.03;213894;1286;140279;-87
2023/08/27 17:56:19;;;;;;;12.90;8.40;;;;;;;20.11;100.00;99765.05;214466;1286;139391;-88
2023/08/27 18:01:20;;;;;;;12.90;8.20;;;;;;;20.02;100.00;99770.55;213846;1287;144151;-87
2023/08/27 18:06:21;;;;;;;12.30;7.40;;;;;;;19.93;100.00;99767.17;214797;1285;138875;-88
2023/08/27 18:11:22;;;;;;;11.80;8.20;;;;;;;19.88;100.00;99766.61;213669;1290;140894;-89
2023/08/27 18:16:22;;;;;;;13.20;8.30;;;;;;;19.79;100.00;99766.17;214546;1290;138980;-88
2023/08/27 18:21:23;;;;;;;15.30;8.70;;;;;;;19.65;100.00;99774.01;213914;1286;141503;-88
2023/08/27 18:26:27;;;;;;;14.10;8.00;;;;;;;19.57;100.00;99779.27;214686;1286;138893;-88
2023/08/27 18:31:27;;;;;;;13.50;7.70;;;;;;;19.48;100.00;99780.79;214355;1290;141294;-88
2023/08/27 18:36:29;;;;;;;14.60;8.50;;;;;;;19.42;100.00;99792.33;215208;1285;138594;-89
2023/08/27 18:41:30;;;;;;;14.80;8.60;;;;;;;19.34;100.00;99813.24;215008;1286;141023;-89
2023/08/27 18:46:33;;;;;;;14.80;8.70;;;;;;;19.26;100.00;99816.48;215290;1287;138960;-89
2023/08/27 18:51:34;;;;;;;15.10;8.20;;;;;;;19.16;100.00;99798.45;214864;1286;141134;-89
2023/08/27 18:56:35;;;;;;;13.20;8.30;;;;;;;19.09;100.00;99781.56;215570;1286;140073;-89
2023/08/27 19:01:35;;;;;;;12.30;6.60;;;;;;;19.03;100.00;99779.12;214951;1286;141480;-89
2023/08/27 19:06:36;;;;;;;15.30;9.10;;;;;;;18.97;100.00;99785.92;215621;1286;97589;-89
2023/08/27 19:11:37;;;;;;;14.20;10.50;;;;;;;18.92;100.00;99796.85;215147;1288;141376;-89
2023/08/27 19:16:38;;;;;;;17.70;10.30;;;;;;;18.88;100.00;99811.27;218405;1285;139709;-89
2023/08/27 19:21:39;;;;;;;15.50;10.30;;;;;;;18.81;100.00;99823.34;217384;1286;141508;-89
2023/08/27 19:26:40;;;;;;;15.90;9.80;;;;;;;18.73;100.00;99830.05;214737;1285;140625;-90
2023/08/27 19:31:41;;;;;;;14.80;8.80;;;;;;;18.62;100.00;99852.78;216445;1286;140474;-88
2023/08/27 19:36:42;;;;;;;13.20;8.60;;;;;;;18.57;100.00;99839.26;214939;1287;97937;-89
2023/08/27 19:41:44;;;;;;;15.60;8.10;;;;;;;18.48;100.00;99816.27;213601;1286;140503;-90
2023/08/27 19:46:44;;;;;;;12.30;7.90;;;;;;;18.44;100.00;99812.18;214395;1288;139033;-89
2023/08/27 19:51:45;;;;;;;14.40;8.80;;;;;;;18.40;100.00;99809.34;213490;1288;141101;-89
2023/08/27 19:56:46;;;;;;;12.40;7.20;;;;;;;18.37;100.00;99811.04;214362;1288;139351;-90
2023/08/27 20:01:51;;;;;;;11.20;7.40;;;;;;;18.35;100.00;99800.20;215522;1288;141234;-92
2023/08/27 20:07:16;;;;;;;12.90;7.20;;;;;;;18.31;100.00;99800.85;215055;1287;108556;-90
2023/08/27 20:12:14;;;;;;;12.50;7.70;;;;;;;18.31;100.00;99801.42;214508;1286;140300;-91
2023/08/27 20:17:14;;;;;;;11.40;7.30;;;;;;;18.30;100.00;99803.67;215306;1287;139831;-90
2023/08/27 20:22:15;;;;;;;10.70;7.50;;;;;;;18.29;100.00;99809.27;214863;1287;140404;-92
2023/08/27 20:27:16;;;;;;;13.40;7.80;;;;;;;18.29;100.00;99796.29;215596;1286;139292;-91
2023/08/27 20:32:16;;;;;;;11.70;8.00;;;;;;;18.29;100.00;99808.48;215242;1285;141150;-91
2023/08/27 20:37:20;;;;;;;11.90;7.80;;;;;;;18.30;100.00;99807.40;216071;1285;97915;-90
2023/08/27 20:42:23;;;;;;;12.20;7.10;;;;;;;18.30;100.00;99806.54;215124;1289;142906;-90
2023/08/27 20:47:25;;;;;;;13.40;8.80;;;;;;;18.30;100.00;99807.89;215769;1288;139215;-90
2023/08/27 20:52:26;;;;;;;13.00;9.40;;;;;;;18.33;100.00;99812.52;216786;1285;140677;-91
2023/08/27 21:02:50;;;;;;;14.00;10.10;;;;;;;18.34;100.00;99808.58;217228;1284;140450;-92
2023/08/27 21:07:51;;;;;;;14.50;9.50;;;;;;;18.33;100.00;99807.19;218277;1286;139134;-90
2023/08/27 21:12:51;;;;;;;14.90;9.90;;;;;;;18.30;100.00;99808.20;215532;1288;140701;-90
2023/08/27 21:17:52;;;;;;;13.50;9.80;;;;;;;18.26;100.00;99808.48;215085;1285;139328;-91
2023/08/27 21:22:53;;;;;;;14.30;9.80;;;;;;;18.21;100.00;99815.95;214783;1288;141315;-91
2023/08/27 21:27:53;;;;;;;19.00;10.70;;;;;;;18.16;100.00;99806.72;215247;1285;139390;-91
2023/08/27 21:32:54;;;;;;;15.30;10.70;;;;;;;18.12;100.00;99802.14;214910;1288;140228;-91
2023/08/27 21:37:54;;;;;;;15.10;9.90;;;;;;;18.09;100.00;99812.89;215214;1286;140494;-93
2023/08/27 21:42:55;;;;;;;15.90;8.80;;;;;;;18.07;100.00;99803.70;214760;1288;140757;-91
2023/08/27 21:47:55;;;;;;;16.90;10.70;;;;;;;18.05;100.00;99814.99;215234;1287;139335;-93
2023/08/27 21:52:56;;;;;;;15.70;11.10;;;;;;;18.02;100.00;99827.71;214656;1285;141460;-92
2023/08/27 21:57:57;;;;;;;15.80;11.50;;;;;;;17.98;100.00;99822.04;214812;1287;139946;-92
2023/08/27 22:02:57;;;;;;;16.10;11.40;;;;;;;17.94;100.00;99814.75;214460;1284;140871;-92
2023/08/27 22:07:58;;;;;;;16.20;11.90;;;;;;;17.94;100.00;99820.80;215282;1287;139007;-91
2023/08/27 22:12:59;;;;;;;19.30;13.50;;;;;;;17.92;100.00;99820.85;215125;1288;141069;-91
2023/08/27 22:18:00;;;;;;;22.00;15.40;;;;;;;17.88;100.00;99822.48;215933;1286;138983;-90
2023/08/27 22:23:01;;;;;;;17.50;13.70;;;;;;;17.83;100.00;99823.04;216380;1285;142444;-90
2023/08/27 22:28:02;;;;;;;18.40;13.80;;;;;;;17.77;100.00;99820.08;216343;1286;139102;-90
2023/08/27 22:33:03;;;;;;;20.50;13.60;;;;;;;17.73;100.00;99823.45;216162;1285;141696;-90
2023/08/27 22:38:04;;;;;;;19.40;15.40;;;;;;;17.73;100.00;99833.96;216722;1285;139104;-91
2023/08/27 22:43:05;;;;;;;18.90;13.20;;;;;;;17.71;100.00;99837.36;216199;1288;140871;-90
2023/08/27 22:48:06;;;;;;;22.50;14.40;;;;;;;17.67;100.00;99840.48;216391;1289;139497;-90
2023/08/27 22:53:06;;;;;;;19.20;14.70;;;;;;;17.64;100.00;99842.09;215595;1286;141400;-91
2023/08/27 22:58:07;;;;;;;23.00;14.80;;;;;;;17.63;100.00;99834.16;215751;1288;306069;-91
2023/08/27 23:03:07;;;;;;;17.80;12.50;;;;;;;17.62;100.00;99833.48;215066;1286;139728;-91
2023/08/27 23:08:08;;;;;;;22.30;13.90;;;;;;;17.61;100.00;99841.52;215742;1288;139464;-91
2023/08/27 23:13:08;;;;;;;18.80;13.80;;;;;;;17.60;100.00;99841.63;215598;1286;141292;-90
2023/08/27 23:18:10;;;;;;;18.70;15.10;;;;;;;17.61;100.00;99834.84;215936;1285;138846;-91
2023/08/27 23:23:11;;;;;;;16.40;11.80;;;;;;;17.61;100.00;99839.63;215357;1285;141312;-91
2023/08/27 23:28:14;;;;;;;18.80;12.90;;;;;;;17.60;100.00;99828.67;215803;1285;139029;-91
2023/08/27 23:33:16;;;;;;;22.40;13.80;;;;;;;17.56;100.00;99823.52;215350;1286;142535;-91
2023/08/27 23:38:17;;;;;;;17.40;12.60;;;;;;;17.54;100.00;99810.61;215807;1288;139219;-90
2023/08/27 23:43:18;;;;;;;19.00;14.80;;;;;;;17.54;100.00;99822.94;215152;1287;141619;-92
2023/08/27 23:48:18;;;;;;;20.00;14.20;;;;;;;17.52;100.00;99834.45;216121;1285;139246;-91
2023/08/27 23:53:19;;;;;;;19.30;15.00;;;;;;;17.49;100.00;99830.09;216483;1289;139725;-90
2023/08/27 23:58:20;;;;;;;24.70;16.10;;;;;;;17.48;100.00;99819.45;216050;1285;139470;-90
